sensor_id;sensor_type;location;lat;lon;timestamp;temperature;humidity
37518;DHT22;23366;52.498;13.446;2023-05-31T00:01:14;15.30;72.70
37518;DHT22;23366;52.498;13.446;2023-05-31T00:03:40;15.20;72.80
37518;DHT22;23366;52.498;13.446;2023-05-31T00:06:11;15.20;73.20
37518;DHT22;23366;52.498;13.446;2023-05-31T00:08:38;15.20;73.20
37518;DHT22;23366;52.498;13.446;2023-05-31T00:11:10;15.20;73.00
37518;DHT22;23366;52.498;13.446;2023-05-31T00:13:42;15.10;73.30
37518;DHT22;23366;52.498;13.446;2023-05-31T00:16:09;15.10;73.40
37518;DHT22;23366;52.498;13.446;2023-05-31T00:18:35;15.10;73.50
37518;DHT22;23366;52.498;13.446;2023-05-31T00:21:00;15.10;73.60
37518;DHT22;23366;52.498;13.446;2023-05-31T00:23:26;15.10;73.60
37518;DHT22;23366;52.498;13.446;2023-05-31T00:25:51;15.10;73.80
37518;DHT22;23366;52.498;13.446;2023-05-31T00:28:16;15.10;73.50
37518;DHT22;23366;52.498;13.446;2023-05-31T00:30:42;15.00;73.80
37518;DHT22;23366;52.498;13.446;2023-05-31T00:33:07;15.00;74.00
37518;DHT22;23366;52.498;13.446;2023-05-31T00:35:33;15.00;74.30
37518;DHT22;23366;52.498;13.446;2023-05-31T00:38:03;14.90;74.30
37518;DHT22;23366;52.498;13.446;2023-05-31T00:40:29;14.80;74.60
37518;DHT22;23366;52.498;13.446;2023-05-31T00:42:54;14.80;74.50
37518;DHT22;23366;52.498;13.446;2023-05-31T00:45:20;14.70;75.10
37518;DHT22;23366;52.498;13.446;2023-05-31T00:47:45;14.70;74.80
37518;DHT22;23366;52.498;13.446;2023-05-31T00:50:11;14.60;74.80
37518;DHT22;23366;52.498;13.446;2023-05-31T00:52:37;14.60;74.80
37518;DHT22;23366;52.498;13.446;2023-05-31T00:55:02;14.60;75.10
37518;DHT22;23366;52.498;13.446;2023-05-31T00:57:29;14.60;75.20
37518;DHT22;23366;52.498;13.446;2023-05-31T00:59:54;14.60;75.00
37518;DHT22;23366;52.498;13.446;2023-05-31T01:02:20;14.60;75.00
37518;DHT22;23366;52.498;13.446;2023-05-31T01:04:46;14.60;75.00
37518;DHT22;23366;52.498;13.446;2023-05-31T01:07:11;14.50;75.20
37518;DHT22;23366;52.498;13.446;2023-05-31T01:09:37;14.60;75.30
37518;DHT22;23366;52.498;13.446;2023-05-31T01:12:20;14.50;75.30
37518;DHT22;23366;52.498;13.446;2023-05-31T01:15:09;14.50;75.20
37518;DHT22;23366;52.498;13.446;2023-05-31T01:17:52;14.40;75.20
37518;DHT22;23366;52.498;13.446;2023-05-31T01:20:27;14.30;75.20
37518;DHT22;23366;52.498;13.446;2023-05-31T01:23:27;14.40;75.40
37518;DHT22;23366;52.498;13.446;2023-05-31T01:26:30;14.30;75.30
37518;DHT22;23366;52.498;13.446;2023-05-31T01:29:00;14.30;75.60
37518;DHT22;23366;52.498;13.446;2023-05-31T01:31:27;14.30;75.60
37518;DHT22;23366;52.498;13.446;2023-05-31T01:33:54;14.30;75.60
37518;DHT22;23366;52.498;13.446;2023-05-31T01:36:20;14.30;75.60
37518;DHT22;23366;52.498;13.446;2023-05-31T01:38:45;14.30;75.90
37518;DHT22;23366;52.498;13.446;2023-05-31T01:41:14;14.30;75.90
37518;DHT22;23366;52.498;13.446;2023-05-31T01:43:42;14.20;75.80
37518;DHT22;23366;52.498;13.446;2023-05-31T01:46:09;14.20;76.00
37518;DHT22;23366;52.498;13.446;2023-05-31T01:48:36;14.20;75.60
37518;DHT22;23366;52.498;13.446;2023-05-31T01:51:03;14.30;75.90
37518;DHT22;23366;52.498;13.446;2023-05-31T01:53:29;14.30;76.00
37518;DHT22;23366;52.498;13.446;2023-05-31T01:55:55;14.20;75.90
37518;DHT22;23366;52.498;13.446;2023-05-31T01:58:21;14.20;75.60
37518;DHT22;23366;52.498;13.446;2023-05-31T02:00:48;14.20;75.70
37518;DHT22;23366;52.498;13.446;2023-05-31T02:03:14;14.20;75.70
37518;DHT22;23366;52.498;13.446;2023-05-31T02:06:00;14.20;76.00
37518;DHT22;23366;52.498;13.446;2023-05-31T02:08:26;14.10;76.10
37518;DHT22;23366;52.498;13.446;2023-05-31T02:10:53;14.10;76.30
37518;DHT22;23366;52.498;13.446;2023-05-31T02:13:19;14.10;75.60
37518;DHT22;23366;52.498;13.446;2023-05-31T02:15:45;14.10;76.40
37518;DHT22;23366;52.498;13.446;2023-05-31T02:18:11;14.10;76.80
37518;DHT22;23366;52.498;13.446;2023-05-31T02:20:37;14.10;76.60
37518;DHT22;23366;52.498;13.446;2023-05-31T02:23:03;14.00;76.80
37518;DHT22;23366;52.498;13.446;2023-05-31T02:25:28;14.10;77.00
37518;DHT22;23366;52.498;13.446;2023-05-31T02:27:54;14.10;77.00
37518;DHT22;23366;52.498;13.446;2023-05-31T02:30:20;14.10;77.70
37518;DHT22;23366;52.498;13.446;2023-05-31T02:32:45;14.10;76.90
37518;DHT22;23366;52.498;13.446;2023-05-31T02:35:11;14.00;77.00
37518;DHT22;23366;52.498;13.446;2023-05-31T02:37:38;13.90;77.00
37518;DHT22;23366;52.498;13.446;2023-05-31T02:40:05;13.90;76.90
37518;DHT22;23366;52.498;13.446;2023-05-31T02:42:38;13.90;77.20
37518;DHT22;23366;52.498;13.446;2023-05-31T02:45:05;13.90;77.10
37518;DHT22;23366;52.498;13.446;2023-05-31T02:47:30;13.90;77.10
37518;DHT22;23366;52.498;13.446;2023-05-31T02:49:56;13.90;77.30
37518;DHT22;23366;52.498;13.446;2023-05-31T02:52:21;13.90;77.90
37518;DHT22;23366;52.498;13.446;2023-05-31T02:54:49;13.90;77.60
37518;DHT22;23366;52.498;13.446;2023-05-31T02:57:14;13.90;77.20
37518;DHT22;23366;52.498;13.446;2023-05-31T02:59:40;13.90;77.10
37518;DHT22;23366;52.498;13.446;2023-05-31T03:02:05;13.90;77.00
37518;DHT22;23366;52.498;13.446;2023-05-31T03:04:31;13.90;77.30
37518;DHT22;23366;52.498;13.446;2023-05-31T03:06:56;13.90;77.20
37518;DHT22;23366;52.498;13.446;2023-05-31T03:09:22;13.90;77.40
37518;DHT22;23366;52.498;13.446;2023-05-31T03:11:48;13.80;77.20
37518;DHT22;23366;52.498;13.446;2023-05-31T03:14:13;13.80;77.20
37518;DHT22;23366;52.498;13.446;2023-05-31T03:16:39;13.70;77.50
37518;DHT22;23366;52.498;13.446;2023-05-31T03:19:04;13.60;77.60
37518;DHT22;23366;52.498;13.446;2023-05-31T03:21:30;13.70;78.30
37518;DHT22;23366;52.498;13.446;2023-05-31T03:23:55;13.70;78.10
37518;DHT22;23366;52.498;13.446;2023-05-31T03:26:21;13.70;78.20
37518;DHT22;23366;52.498;13.446;2023-05-31T03:28:46;13.70;78.20
37518;DHT22;23366;52.498;13.446;2023-05-31T03:31:11;13.70;78.00
37518;DHT22;23366;52.498;13.446;2023-05-31T03:33:37;13.70;77.80
37518;DHT22;23366;52.498;13.446;2023-05-31T03:36:03;13.60;77.70
37518;DHT22;23366;52.498;13.446;2023-05-31T03:38:30;13.60;78.20
37518;DHT22;23366;52.498;13.446;2023-05-31T03:40:55;13.60;78.50
37518;DHT22;23366;52.498;13.446;2023-05-31T03:43:24;13.60;78.70
37518;DHT22;23366;52.498;13.446;2023-05-31T03:45:49;13.70;79.00
37518;DHT22;23366;52.498;13.446;2023-05-31T03:48:15;13.70;78.80
37518;DHT22;23366;52.498;13.446;2023-05-31T03:50:40;13.80;78.50
37518;DHT22;23366;52.498;13.446;2023-05-31T03:53:06;13.80;78.60
37518;DHT22;23366;52.498;13.446;2023-05-31T03:55:32;13.90;77.90
37518;DHT22;23366;52.498;13.446;2023-05-31T03:57:58;13.90;77.80
37518;DHT22;23366;52.498;13.446;2023-05-31T04:00:23;14.00;78.10
37518;DHT22;23366;52.498;13.446;2023-05-31T04:02:49;14.10;77.60
37518;DHT22;23366;52.498;13.446;2023-05-31T04:05:14;14.20;77.50
37518;DHT22;23366;52.498;13.446;2023-05-31T04:07:41;14.30;77.00
37518;DHT22;23366;52.498;13.446;2023-05-31T04:10:06;14.40;76.80
37518;DHT22;23366;52.498;13.446;2023-05-31T04:12:32;14.50;76.40
37518;DHT22;23366;52.498;13.446;2023-05-31T04:14:58;14.50;76.00
37518;DHT22;23366;52.498;13.446;2023-05-31T04:17:23;14.50;75.50
37518;DHT22;23366;52.498;13.446;2023-05-31T04:19:48;14.40;80.40
37518;DHT22;23366;52.498;13.446;2023-05-31T04:22:14;14.40;78.50
37518;DHT22;23366;52.498;13.446;2023-05-31T04:24:40;14.40;77.60
37518;DHT22;23366;52.498;13.446;2023-05-31T04:27:05;14.40;78.10
37518;DHT22;23366;52.498;13.446;2023-05-31T04:29:32;14.50;77.40
37518;DHT22;23366;52.498;13.446;2023-05-31T04:31:58;14.70;80.60
37518;DHT22;23366;52.498;13.446;2023-05-31T04:34:23;14.90;78.40
37518;DHT22;23366;52.498;13.446;2023-05-31T04:36:49;15.20;78.10
37518;DHT22;23366;52.498;13.446;2023-05-31T04:39:15;15.60;75.50
37518;DHT22;23366;52.498;13.446;2023-05-31T04:41:42;16.00;74.10
37518;DHT22;23366;52.498;13.446;2023-05-31T04:44:07;16.50;73.80
37518;DHT22;23366;52.498;13.446;2023-05-31T04:46:33;17.10;70.30
37518;DHT22;23366;52.498;13.446;2023-05-31T04:48:59;18.20;68.40
37518;DHT22;23366;52.498;13.446;2023-05-31T04:51:26;19.70;64.50
37518;DHT22;23366;52.498;13.446;2023-05-31T04:53:51;21.50;59.60
37518;DHT22;23366;52.498;13.446;2023-05-31T04:56:17;23.40;56.30
37518;DHT22;23366;52.498;13.446;2023-05-31T04:58:42;25.10;53.10
37518;DHT22;23366;52.498;13.446;2023-05-31T05:01:08;26.50;51.50
37518;DHT22;23366;52.498;13.446;2023-05-31T05:03:33;27.60;48.60
37518;DHT22;23366;52.498;13.446;2023-05-31T05:06:01;28.60;47.50
37518;DHT22;23366;52.498;13.446;2023-05-31T05:08:36;29.50;46.30
37518;DHT22;23366;52.498;13.446;2023-05-31T05:11:01;30.50;45.50
37518;DHT22;23366;52.498;13.446;2023-05-31T05:13:28;30.30;43.80
37518;DHT22;23366;52.498;13.446;2023-05-31T05:15:53;31.00;43.80
37518;DHT22;23366;52.498;13.446;2023-05-31T05:18:18;31.70;43.40
37518;DHT22;23366;52.498;13.446;2023-05-31T05:20:44;32.30;42.90
37518;DHT22;23366;52.498;13.446;2023-05-31T05:23:10;32.60;42.20
37518;DHT22;23366;52.498;13.446;2023-05-31T05:25:35;32.70;41.70
37518;DHT22;23366;52.498;13.446;2023-05-31T05:28:01;33.10;41.40
37518;DHT22;23366;52.498;13.446;2023-05-31T05:30:27;33.00;41.50
37518;DHT22;23366;52.498;13.446;2023-05-31T05:32:52;33.70;41.10
37518;DHT22;23366;52.498;13.446;2023-05-31T05:35:18;34.10;40.50
37518;DHT22;23366;52.498;13.446;2023-05-31T05:37:43;34.40;39.80
37518;DHT22;23366;52.498;13.446;2023-05-31T05:40:09;34.50;39.70
37518;DHT22;23366;52.498;13.446;2023-05-31T05:42:34;34.90;39.80
37518;DHT22;23366;52.498;13.446;2023-05-31T05:45:04;35.10;39.50
37518;DHT22;23366;52.498;13.446;2023-05-31T05:47:30;35.00;39.20
37518;DHT22;23366;52.498;13.446;2023-05-31T05:49:56;35.40;39.20
37518;DHT22;23366;52.498;13.446;2023-05-31T05:52:21;35.60;39.10
37518;DHT22;23366;52.498;13.446;2023-05-31T05:54:47;35.70;38.90
37518;DHT22;23366;52.498;13.446;2023-05-31T05:57:12;35.40;38.80
37518;DHT22;23366;52.498;13.446;2023-05-31T05:59:38;35.80;39.00
37518;DHT22;23366;52.498;13.446;2023-05-31T06:02:06;35.60;38.70
37518;DHT22;23366;52.498;13.446;2023-05-31T06:04:31;36.00;38.60
37518;DHT22;23366;52.498;13.446;2023-05-31T06:06:57;36.30;38.60
37518;DHT22;23366;52.498;13.446;2023-05-31T06:09:22;36.50;38.00
37518;DHT22;23366;52.498;13.446;2023-05-31T06:11:48;36.60;37.90
37518;DHT22;23366;52.498;13.446;2023-05-31T06:14:13;36.60;37.90
37518;DHT22;23366;52.498;13.446;2023-05-31T06:16:39;37.20;37.80
37518;DHT22;23366;52.498;13.446;2023-05-31T06:19:04;36.90;37.50
37518;DHT22;23366;52.498;13.446;2023-05-31T06:21:30;37.10;37.50
37518;DHT22;23366;52.498;13.446;2023-05-31T06:23:55;37.30;37.40
37518;DHT22;23366;52.498;13.446;2023-05-31T06:26:21;37.40;37.40
37518;DHT22;23366;52.498;13.446;2023-05-31T06:28:46;37.50;37.20
37518;DHT22;23366;52.498;13.446;2023-05-31T06:31:12;37.80;37.20
37518;DHT22;23366;52.498;13.446;2023-05-31T06:33:37;38.00;37.20
37518;DHT22;23366;52.498;13.446;2023-05-31T06:36:03;38.30;37.80
37518;DHT22;23366;52.498;13.446;2023-05-31T06:38:28;38.20;36.70
37518;DHT22;23366;52.498;13.446;2023-05-31T06:40:54;38.50;37.00
37518;DHT22;23366;52.498;13.446;2023-05-31T06:43:20;38.90;36.80
37518;DHT22;23366;52.498;13.446;2023-05-31T06:45:45;38.90;36.50
37518;DHT22;23366;52.498;13.446;2023-05-31T06:48:10;39.10;36.50
37518;DHT22;23366;52.498;13.446;2023-05-31T06:50:36;38.60;36.60
37518;DHT22;23366;52.498;13.446;2023-05-31T06:53:02;39.30;36.30
37518;DHT22;23366;52.498;13.446;2023-05-31T06:55:27;39.70;36.70
37518;DHT22;23366;52.498;13.446;2023-05-31T06:57:53;39.90;36.00
37518;DHT22;23366;52.498;13.446;2023-05-31T07:00:18;39.90;36.00
37518;DHT22;23366;52.498;13.446;2023-05-31T07:02:45;40.00;35.60
37518;DHT22;23366;52.498;13.446;2023-05-31T07:05:10;40.10;35.60
37518;DHT22;23366;52.498;13.446;2023-05-31T07:07:36;40.60;36.00
37518;DHT22;23366;52.498;13.446;2023-05-31T07:10:01;40.60;35.10
37518;DHT22;23366;52.498;13.446;2023-05-31T07:12:28;41.00;35.30
37518;DHT22;23366;52.498;13.446;2023-05-31T07:14:53;41.50;34.80
37518;DHT22;23366;52.498;13.446;2023-05-31T07:17:19;41.60;34.80
37518;DHT22;23366;52.498;13.446;2023-05-31T07:19:45;41.60;34.60
37518;DHT22;23366;52.498;13.446;2023-05-31T07:22:13;41.30;34.60
37518;DHT22;23366;52.498;13.446;2023-05-31T07:24:39;41.30;34.80
37518;DHT22;23366;52.498;13.446;2023-05-31T07:27:06;41.40;34.60
37518;DHT22;23366;52.498;13.446;2023-05-31T07:29:31;41.70;34.70
37518;DHT22;23366;52.498;13.446;2023-05-31T07:31:57;41.80;34.30
37518;DHT22;23366;52.498;13.446;2023-05-31T07:34:22;41.50;34.30
37518;DHT22;23366;52.498;13.446;2023-05-31T07:36:48;41.60;34.30
37518;DHT22;23366;52.498;13.446;2023-05-31T07:39:13;42.30;34.60
37518;DHT22;23366;52.498;13.446;2023-05-31T07:41:39;43.10;34.40
37518;DHT22;23366;52.498;13.446;2023-05-31T07:44:04;43.40;34.00
37518;DHT22;23366;52.498;13.446;2023-05-31T07:46:30;44.00;33.70
37518;DHT22;23366;52.498;13.446;2023-05-31T07:49:17;44.40;33.40
37518;DHT22;23366;52.498;13.446;2023-05-31T07:51:55;44.60;33.00
37518;DHT22;23366;52.498;13.446;2023-05-31T07:54:47;45.40;32.50
37518;DHT22;23366;52.498;13.446;2023-05-31T07:57:46;45.30;32.70
37518;DHT22;23366;52.498;13.446;2023-05-31T08:00:12;45.60;32.60
37518;DHT22;23366;52.498;13.446;2023-05-31T08:02:40;45.30;32.30
37518;DHT22;23366;52.498;13.446;2023-05-31T08:05:09;45.20;32.50
37518;DHT22;23366;52.498;13.446;2023-05-31T08:07:34;44.80;32.30
37518;DHT22;23366;52.498;13.446;2023-05-31T08:10:00;44.60;32.20
37518;DHT22;23366;52.498;13.446;2023-05-31T08:12:26;43.90;32.60
37518;DHT22;23366;52.498;13.446;2023-05-31T08:14:58;43.10;32.90
37518;DHT22;23366;52.498;13.446;2023-05-31T08:17:24;42.90;32.80
37518;DHT22;23366;52.498;13.446;2023-05-31T08:19:49;42.30;33.60
37518;DHT22;23366;52.498;13.446;2023-05-31T08:22:15;42.30;32.90
37518;DHT22;23366;52.498;13.446;2023-05-31T08:24:41;42.40;32.60
37518;DHT22;23366;52.498;13.446;2023-05-31T08:27:06;42.40;32.30
37518;DHT22;23366;52.498;13.446;2023-05-31T08:29:35;42.10;32.50
37518;DHT22;23366;52.498;13.446;2023-05-31T08:32:00;42.10;32.50
37518;DHT22;23366;52.498;13.446;2023-05-31T08:34:26;42.20;32.30
37518;DHT22;23366;52.498;13.446;2023-05-31T08:36:52;42.90;31.90
37518;DHT22;23366;52.498;13.446;2023-05-31T08:39:18;42.50;31.20
37518;DHT22;23366;52.498;13.446;2023-05-31T08:42:11;42.20;31.10
37518;DHT22;23366;52.498;13.446;2023-05-31T08:44:38;41.90;31.10
37518;DHT22;23366;52.498;13.446;2023-05-31T08:47:17;41.30;31.20
37518;DHT22;23366;52.498;13.446;2023-05-31T08:49:45;40.50;32.30
37518;DHT22;23366;52.498;13.446;2023-05-31T08:52:12;39.50;32.70
37518;DHT22;23366;52.498;13.446;2023-05-31T08:54:42;39.20;32.80
37518;DHT22;23366;52.498;13.446;2023-05-31T08:57:08;39.80;32.80
37518;DHT22;23366;52.498;13.446;2023-05-31T08:59:36;40.10;32.70
37518;DHT22;23366;52.498;13.446;2023-05-31T09:02:03;40.70;32.50
37518;DHT22;23366;52.498;13.446;2023-05-31T09:04:48;41.20;31.40
37518;DHT22;23366;52.498;13.446;2023-05-31T09:07:27;41.40;31.00
37518;DHT22;23366;52.498;13.446;2023-05-31T09:10:12;40.40;30.80
37518;DHT22;23366;52.498;13.446;2023-05-31T09:12:40;40.80;31.80
37518;DHT22;23366;52.498;13.446;2023-05-31T09:15:06;41.20;31.90
37518;DHT22;23366;52.498;13.446;2023-05-31T09:17:35;41.10;31.90
37518;DHT22;23366;52.498;13.446;2023-05-31T09:20:01;41.10;31.90
37518;DHT22;23366;52.498;13.446;2023-05-31T09:22:26;40.90;32.30
37518;DHT22;23366;52.498;13.446;2023-05-31T09:24:56;40.80;31.90
37518;DHT22;23366;52.498;13.446;2023-05-31T09:27:23;40.80;32.10
37518;DHT22;23366;52.498;13.446;2023-05-31T09:30:10;40.90;32.00
37518;DHT22;23366;52.498;13.446;2023-05-31T09:32:51;40.60;31.80
37518;DHT22;23366;52.498;13.446;2023-05-31T09:36:12;40.20;31.90
37518;DHT22;23366;52.498;13.446;2023-05-31T09:38:46;39.20;32.40
37518;DHT22;23366;52.498;13.446;2023-05-31T09:41:18;38.30;32.60
37518;DHT22;23366;52.498;13.446;2023-05-31T09:43:47;37.70;33.00
37518;DHT22;23366;52.498;13.446;2023-05-31T09:46:20;36.70;33.50
37518;DHT22;23366;52.498;13.446;2023-05-31T09:49:07;36.10;34.10
37518;DHT22;23366;52.498;13.446;2023-05-31T09:51:35;35.20;34.70
37518;DHT22;23366;52.498;13.446;2023-05-31T09:54:09;34.50;34.90
37518;DHT22;23366;52.498;13.446;2023-05-31T09:56:40;33.90;35.40
37518;DHT22;23366;52.498;13.446;2023-05-31T09:59:09;33.30;35.70
37518;DHT22;23366;52.498;13.446;2023-05-31T10:01:35;32.90;35.80
37518;DHT22;23366;52.498;13.446;2023-05-31T10:04:03;32.50;36.10
37518;DHT22;23366;52.498;13.446;2023-05-31T10:06:29;32.20;36.30
37518;DHT22;23366;52.498;13.446;2023-05-31T10:08:57;31.70;36.50
37518;DHT22;23366;52.498;13.446;2023-05-31T10:11:26;31.40;36.80
37518;DHT22;23366;52.498;13.446;2023-05-31T10:13:56;31.10;36.80
37518;DHT22;23366;52.498;13.446;2023-05-31T10:16:26;31.00;36.50
37518;DHT22;23366;52.498;13.446;2023-05-31T10:18:54;30.80;37.10
37518;DHT22;23366;52.498;13.446;2023-05-31T10:21:24;30.40;37.60
37518;DHT22;23366;52.498;13.446;2023-05-31T10:24:01;30.20;38.50
37518;DHT22;23366;52.498;13.446;2023-05-31T10:26:53;30.20;38.20
37518;DHT22;23366;52.498;13.446;2023-05-31T10:29:27;29.80;38.70
37518;DHT22;23366;52.498;13.446;2023-05-31T10:31:57;29.30;39.30
37518;DHT22;23366;52.498;13.446;2023-05-31T10:34:26;29.30;39.80
37518;DHT22;23366;52.498;13.446;2023-05-31T10:36:54;29.30;39.90
37518;DHT22;23366;52.498;13.446;2023-05-31T10:40:34;29.40;39.50
37518;DHT22;23366;52.498;13.446;2023-05-31T10:42:48;29.50;39.40
37518;DHT22;23366;52.498;13.446;2023-05-31T10:45:27;29.50;39.70
37518;DHT22;23366;52.498;13.446;2023-05-31T10:48:16;29.50;40.10
37518;DHT22;23366;52.498;13.446;2023-05-31T10:51:01;29.60;40.20
37518;DHT22;23366;52.498;13.446;2023-05-31T10:53:36;29.70;39.80
37518;DHT22;23366;52.498;13.446;2023-05-31T10:56:15;29.70;39.60
37518;DHT22;23366;52.498;13.446;2023-05-31T10:58:43;29.70;40.10
37518;DHT22;23366;52.498;13.446;2023-05-31T11:01:21;29.80;39.60
37518;DHT22;23366;52.498;13.446;2023-05-31T11:03:50;29.70;39.50
37518;DHT22;23366;52.498;13.446;2023-05-31T11:06:23;29.70;39.60
37518;DHT22;23366;52.498;13.446;2023-05-31T11:09:13;29.80;39.40
37518;DHT22;23366;52.498;13.446;2023-05-31T11:16:00;30.00;39.40
37518;DHT22;23366;52.498;13.446;2023-05-31T11:18:46;29.80;39.20
37518;DHT22;23366;52.498;13.446;2023-05-31T11:21:56;29.60;39.00
37518;DHT22;23366;52.498;13.446;2023-05-31T11:24:49;29.50;39.40
37518;DHT22;23366;52.498;13.446;2023-05-31T11:27:38;29.50;39.00
37518;DHT22;23366;52.498;13.446;2023-05-31T11:30:12;29.40;38.90
37518;DHT22;23366;52.498;13.446;2023-05-31T11:35:05;29.20;38.90
37518;DHT22;23366;52.498;13.446;2023-05-31T11:37:45;28.80;38.40
37518;DHT22;23366;52.498;13.446;2023-05-31T11:40:37;28.60;39.50
37518;DHT22;23366;52.498;13.446;2023-05-31T11:43:28;28.50;39.40
37518;DHT22;23366;52.498;13.446;2023-05-31T11:46:14;28.50;39.70
37518;DHT22;23366;52.498;13.446;2023-05-31T11:48:45;28.60;39.20
37518;DHT22;23366;52.498;13.446;2023-05-31T11:51:19;28.60;39.10
37518;DHT22;23366;52.498;13.446;2023-05-31T11:54:00;28.50;39.20
37518;DHT22;23366;52.498;13.446;2023-05-31T11:56:32;28.50;38.70
37518;DHT22;23366;52.498;13.446;2023-05-31T11:59:10;28.50;38.60
37518;DHT22;23366;52.498;13.446;2023-05-31T12:01:39;28.50;38.50
37518;DHT22;23366;52.498;13.446;2023-05-31T12:04:05;28.40;38.90
37518;DHT22;23366;52.498;13.446;2023-05-31T12:06:31;28.40;39.20
37518;DHT22;23366;52.498;13.446;2023-05-31T12:08:59;28.30;39.00
37518;DHT22;23366;52.498;13.446;2023-05-31T12:11:24;28.30;39.30
37518;DHT22;23366;52.498;13.446;2023-05-31T12:13:53;28.30;39.30
37518;DHT22;23366;52.498;13.446;2023-05-31T12:16:31;28.30;39.40
37518;DHT22;23366;52.498;13.446;2023-05-31T12:19:03;28.20;39.80
37518;DHT22;23366;52.498;13.446;2023-05-31T12:21:48;28.20;39.80
37518;DHT22;23366;52.498;13.446;2023-05-31T12:24:17;28.10;39.70
37518;DHT22;23366;52.498;13.446;2023-05-31T12:26:44;28.00;39.90
37518;DHT22;23366;52.498;13.446;2023-05-31T12:29:19;28.00;39.70
37518;DHT22;23366;52.498;13.446;2023-05-31T12:32:06;27.90;39.80
37518;DHT22;23366;52.498;13.446;2023-05-31T12:34:36;27.80;39.90
37518;DHT22;23366;52.498;13.446;2023-05-31T12:37:06;27.70;40.40
37518;DHT22;23366;52.498;13.446;2023-05-31T12:39:33;27.70;40.50
37518;DHT22;23366;52.498;13.446;2023-05-31T12:42:03;27.70;41.10
37518;DHT22;23366;52.498;13.446;2023-05-31T12:44:33;27.70;41.60
37518;DHT22;23366;52.498;13.446;2023-05-31T12:47:19;27.70;41.50
37518;DHT22;23366;52.498;13.446;2023-05-31T12:50:03;27.70;41.50
37518;DHT22;23366;52.498;13.446;2023-05-31T12:52:36;27.70;41.70
37518;DHT22;23366;52.498;13.446;2023-05-31T12:55:04;27.60;40.80
37518;DHT22;23366;52.498;13.446;2023-05-31T12:57:30;27.40;40.60
37518;DHT22;23366;52.498;13.446;2023-05-31T13:00:07;27.30;40.20
37518;DHT22;23366;52.498;13.446;2023-05-31T13:03:02;27.20;40.90
37518;DHT22;23366;52.498;13.446;2023-05-31T13:06:12;27.10;40.50
37518;DHT22;23366;52.498;13.446;2023-05-31T13:08:38;27.20;40.50
37518;DHT22;23366;52.498;13.446;2023-05-31T13:14:43;27.20;40.40
37518;DHT22;23366;52.498;13.446;2023-05-31T13:17:18;27.20;40.10
37518;DHT22;23366;52.498;13.446;2023-05-31T13:20:18;27.20;39.90
37518;DHT22;23366;52.498;13.446;2023-05-31T13:23:16;27.20;40.00
37518;DHT22;23366;52.498;13.446;2023-05-31T13:26:05;27.20;39.40
37518;DHT22;23366;52.498;13.446;2023-05-31T13:28:30;27.20;39.00
37518;DHT22;23366;52.498;13.446;2023-05-31T13:30:56;27.20;39.20
37518;DHT22;23366;52.498;13.446;2023-05-31T13:33:33;27.20;38.70
37518;DHT22;23366;52.498;13.446;2023-05-31T13:36:43;27.00;38.40
37518;DHT22;23366;52.498;13.446;2023-05-31T13:39:37;26.90;39.30
37518;DHT22;23366;52.498;13.446;2023-05-31T13:45:12;26.90;39.60
37518;DHT22;23366;52.498;13.446;2023-05-31T13:47:41;26.90;39.60
37518;DHT22;23366;52.498;13.446;2023-05-31T13:50:17;26.90;39.40
37518;DHT22;23366;52.498;13.446;2023-05-31T13:52:42;26.80;39.30
37518;DHT22;23366;52.498;13.446;2023-05-31T13:55:14;26.70;39.30
37518;DHT22;23366;52.498;13.446;2023-05-31T13:57:40;26.80;39.60
37518;DHT22;23366;52.498;13.446;2023-05-31T14:00:06;26.80;38.90
37518;DHT22;23366;52.498;13.446;2023-05-31T14:02:32;26.80;39.10
37518;DHT22;23366;52.498;13.446;2023-05-31T14:04:57;26.80;39.00
37518;DHT22;23366;52.498;13.446;2023-05-31T14:07:23;26.80;39.10
37518;DHT22;23366;52.498;13.446;2023-05-31T14:09:48;26.80;39.20
37518;DHT22;23366;52.498;13.446;2023-05-31T14:12:14;26.80;38.70
37518;DHT22;23366;52.498;13.446;2023-05-31T14:14:39;26.80;38.60
37518;DHT22;23366;52.498;13.446;2023-05-31T14:17:05;26.80;39.00
37518;DHT22;23366;52.498;13.446;2023-05-31T14:19:30;26.90;39.20
37518;DHT22;23366;52.498;13.446;2023-05-31T14:21:56;26.90;39.40
37518;DHT22;23366;52.498;13.446;2023-05-31T14:24:21;26.90;39.10
37518;DHT22;23366;52.498;13.446;2023-05-31T14:26:47;26.90;39.10
37518;DHT22;23366;52.498;13.446;2023-05-31T14:29:13;26.90;38.80
37518;DHT22;23366;52.498;13.446;2023-05-31T14:31:38;26.90;38.20
37518;DHT22;23366;52.498;13.446;2023-05-31T14:34:04;26.90;38.70
37518;DHT22;23366;52.498;13.446;2023-05-31T14:36:29;26.90;38.60
37518;DHT22;23366;52.498;13.446;2023-05-31T14:38:58;26.80;38.30
37518;DHT22;23366;52.498;13.446;2023-05-31T14:41:26;26.70;38.20
37518;DHT22;23366;52.498;13.446;2023-05-31T14:43:52;26.60;38.00
37518;DHT22;23366;52.498;13.446;2023-05-31T14:46:17;26.60;38.70
37518;DHT22;23366;52.498;13.446;2023-05-31T14:51:52;26.40;39.00
37518;DHT22;23366;52.498;13.446;2023-05-31T14:54:46;26.40;38.50
37518;DHT22;23366;52.498;13.446;2023-05-31T14:57:11;26.30;38.90
37518;DHT22;23366;52.498;13.446;2023-05-31T14:59:37;26.40;39.10
37518;DHT22;23366;52.498;13.446;2023-05-31T15:02:02;26.40;39.50
37518;DHT22;23366;52.498;13.446;2023-05-31T15:04:28;26.50;39.30
37518;DHT22;23366;52.498;13.446;2023-05-31T15:06:53;26.60;39.40
37518;DHT22;23366;52.498;13.446;2023-05-31T15:09:19;26.60;39.20
37518;DHT22;23366;52.498;13.446;2023-05-31T15:11:45;26.60;39.50
37518;DHT22;23366;52.498;13.446;2023-05-31T15:14:12;26.70;40.00
37518;DHT22;23366;52.498;13.446;2023-05-31T15:16:37;26.60;39.80
37518;DHT22;23366;52.498;13.446;2023-05-31T15:19:03;26.70;39.40
37518;DHT22;23366;52.498;13.446;2023-05-31T15:21:28;26.70;39.00
37518;DHT22;23366;52.498;13.446;2023-05-31T15:23:54;26.70;38.90
37518;DHT22;23366;52.498;13.446;2023-05-31T15:26:20;26.70;38.50
37518;DHT22;23366;52.498;13.446;2023-05-31T15:28:47;26.70;38.60
37518;DHT22;23366;52.498;13.446;2023-05-31T15:31:13;26.70;38.90
37518;DHT22;23366;52.498;13.446;2023-05-31T15:33:38;26.70;39.00
37518;DHT22;23366;52.498;13.446;2023-05-31T15:36:04;26.80;39.30
37518;DHT22;23366;52.498;13.446;2023-05-31T15:38:30;26.80;38.80
37518;DHT22;23366;52.498;13.446;2023-05-31T15:40:56;26.90;39.30
37518;DHT22;23366;52.498;13.446;2023-05-31T15:43:24;26.90;39.80
37518;DHT22;23366;52.498;13.446;2023-05-31T15:45:50;26.80;39.50
37518;DHT22;23366;52.498;13.446;2023-05-31T15:48:16;26.90;40.80